sensor_id;sensor_type;location;lat;lon;timestamp;pressure;altitude;pressure_sealevel;temperature;humidity
3434;BME280;1730;41.932;25.548;2022-09-03T00:01:36;101613.47;;;21.97;100.00
3434;BME280;1730;41.932;25.548;2022-09-03T00:04:27;101516.22;;;21.33;100.00
3434;BME280;1730;41.932;25.548;2022-09-03T00:07:10;101543.53;;;21.43;100.00
3434;BME280;1730;41.932;25.548;2022-09-03T00:09:46;101609.78;;;21.72;100.00
3434;BME280;1730;41.932;25.548;2022-09-03T00:12:18;101627.31;;;21.79;100.00
3434;BME280;1730;41.932;25.548;2022-09-03T00:17:28;101639.12;;;21.64;100.00
3434;BME280;1730;41.932;25.548;2022-09-03T00:20:38;101659.72;;;21.68;100.00
3434;BME280;1730;41.932;25.548;2022-09-03T00:23:06;101469.22;;;20.54;100.00
3434;BME280;1730;41.932;25.548;2022-09-03T00:25:34;101607.75;;;21.66;100.00
3434;BME280;1730;41.932;25.548;2022-09-03T00:28:05;101469.31;;;20.94;100.00
3434;BME280;1730;41.932;25.548;2022-09-03T00:30:37;101602.91;;;21.52;100.00
3434;BME280;1730;41.932;25.548;2022-09-03T00:33:26;101478.56;;;20.93;100.00
3434;BME280;1730;41.932;25.548;2022-09-03T00:36:04;101571.19;;;21.57;100.00
3434;BME280;1730;41.932;25.548;2022-09-03T00:38:33;101576.31;;;21.52;100.00
3434;BME280;1730;41.932;25.548;2022-09-03T00:41:35;101452.00;;;20.86;100.00
3434;BME280;1730;41.932;25.548;2022-09-03T00:50:08;101519.66;;;21.59;100.00
3434;BME280;1730;41.932;25.548;2022-09-03T01:00:38;101528.06;;;21.34;100.00
3434;BME280;1730;41.932;25.548;2022-09-03T01:06:15;101597.41;;;21.44;100.00
3434;BME280;1730;41.932;25.548;2022-09-03T01:17:12;101561.88;;;21.34;100.00
3434;BME280;1730;41.932;25.548;2022-09-03T01:34:05;101561.41;;;21.71;100.00
3434;BME280;1730;41.932;25.548;2022-09-03T01:39:11;101512.31;;;21.44;100.00
3434;BME280;1730;41.932;25.548;2022-09-03T01:50:12;101479.88;;;21.47;100.00
3434;BME280;1730;41.932;25.548;2022-09-03T01:52:55;101400.22;;;20.99;100.00
3434;BME280;1730;41.932;25.548;2022-09-03T01:55:30;101483.47;;;21.40;100.00
3434;BME280;1730;41.932;25.548;2022-09-03T02:01:04;101589.34;;;21.50;100.00
3434;BME280;1730;41.932;25.548;2022-09-03T02:03:39;101417.31;;;20.60;100.00
3434;BME280;1730;41.932;25.548;2022-09-03T02:06:08;101141.16;;;18.98;100.00
3434;BME280;1730;41.932;25.548;2022-09-03T02:08:34;101572.72;;;21.68;100.00
3434;BME280;1730;41.932;25.548;2022-09-03T02:11:01;101016.53;;;18.45;100.00
3434;BME280;1730;41.932;25.548;2022-09-03T02:13:41;101555.22;;;21.61;100.00
3434;BME280;1730;41.932;25.548;2022-09-03T02:16:30;101527.91;;;21.51;100.00
3434;BME280;1730;41.932;25.548;2022-09-03T02:19:01;101216.19;;;19.71;100.00
3434;BME280;1730;41.932;25.548;2022-09-03T02:21:34;101548.53;;;21.72;100.00
3434;BME280;1730;41.932;25.548;2022-09-03T02:24:02;101507.13;;;21.81;100.00
3434;BME280;1730;41.932;25.548;2022-09-03T02:26:29;101473.84;;;21.76;100.00
3434;BME280;1730;41.932;25.548;2022-09-03T02:28:56;101117.50;;;19.72;100.00
3434;BME280;1730;41.932;25.548;2022-09-03T02:31:22;100995.75;;;18.94;100.00
3434;BME280;1730;41.932;25.548;2022-09-03T02:33:48;101316.03;;;21.07;100.00
3434;BME280;1730;41.932;25.548;2022-09-03T02:36:18;101407.94;;;21.76;100.00
3434;BME280;1730;41.932;25.548;2022-09-03T02:38:45;101276.12;;;20.81;100.00
3434;BME280;1730;41.932;25.548;2022-09-03T02:41:12;101335.28;;;21.24;100.00
3434;BME280;1730;41.932;25.548;2022-09-03T02:44:04;101211.38;;;20.47;100.00
3434;BME280;1730;41.932;25.548;2022-09-03T02:46:38;101390.59;;;21.68;100.00
3434;BME280;1730;41.932;25.548;2022-09-03T02:49:04;101370.84;;;21.72;100.00
3434;BME280;1730;41.932;25.548;2022-09-03T02:51:34;101345.44;;;21.70;100.00
3434;BME280;1730;41.932;25.548;2022-09-03T02:54:00;101348.84;;;21.72;100.00
3434;BME280;1730;41.932;25.548;2022-09-03T02:56:26;101311.81;;;21.68;100.00
3434;BME280;1730;41.932;25.548;2022-09-03T02:58:52;100967.28;;;19.61;100.00
3434;BME280;1730;41.932;25.548;2022-09-03T03:01:19;101308.63;;;21.48;100.00
3434;BME280;1730;41.932;25.548;2022-09-03T03:03:44;101045.12;;;19.91;100.00
3434;BME280;1730;41.932;25.548;2022-09-03T03:06:10;101287.66;;;21.55;100.00
3434;BME280;1730;41.932;25.548;2022-09-03T03:08:38;101187.66;;;20.87;100.00
3434;BME280;1730;41.932;25.548;2022-09-03T03:11:03;101023.91;;;19.69;100.00
3434;BME280;1730;41.932;25.548;2022-09-03T03:13:30;101300.97;;;21.75;100.00
3434;BME280;1730;41.932;25.548;2022-09-03T03:16:00;101260.00;;;21.65;100.00
3434;BME280;1730;41.932;25.548;2022-09-03T03:18:26;101155.34;;;21.21;100.00
3434;BME280;1730;41.932;25.548;2022-09-03T03:20:53;101128.06;;;21.28;100.00
3434;BME280;1730;41.932;25.548;2022-09-03T03:23:19;101202.41;;;21.80;100.00
3434;BME280;1730;41.932;25.548;2022-09-03T03:25:45;101111.50;;;21.05;100.00
3434;BME280;1730;41.932;25.548;2022-09-03T03:28:11;101118.41;;;20.85;100.00
3434;BME280;1730;41.932;25.548;2022-09-03T03:30:38;101258.22;;;21.72;100.00
3434;BME280;1730;41.932;25.548;2022-09-03T03:33:08;101259.63;;;21.68;100.00
3434;BME280;1730;41.932;25.548;2022-09-03T03:35:34;101153.19;;;21.00;100.00
3434;BME280;1730;41.932;25.548;2022-09-03T03:38:00;101249.78;;;21.82;100.00
3434;BME280;1730;41.932;25.548;2022-09-03T03:40:26;101068.09;;;20.69;100.00
3434;BME280;1730;41.932;25.548;2022-09-03T03:42:51;100777.00;;;18.70;100.00
3434;BME280;1730;41.932;25.548;2022-09-03T03:45:17;101257.59;;;21.62;100.00
3434;BME280;1730;41.932;25.548;2022-09-03T03:47:43;101158.78;;;21.07;100.00
3434;BME280;1730;41.932;25.548;2022-09-03T03:50:09;101008.09;;;20.11;100.00
3434;BME280;1730;41.932;25.548;2022-09-03T03:52:34;101269.81;;;21.51;100.00
3434;BME280;1730;41.932;25.548;2022-09-03T03:55:01;101212.72;;;20.84;100.00
3434;BME280;1730;41.932;25.548;2022-09-03T03:57:29;101322.06;;;21.27;100.00
3434;BME280;1730;41.932;25.548;2022-09-03T03:59:56;101014.62;;;19.29;100.00
3434;BME280;1730;41.932;25.548;2022-09-03T04:02:21;101231.75;;;20.37;100.00
3434;BME280;1730;41.932;25.548;2022-09-03T04:04:47;101278.69;;;20.50;100.00
3434;BME280;1730;41.932;25.548;2022-09-03T04:07:13;101334.56;;;20.81;100.00
3434;BME280;1730;41.932;25.548;2022-09-03T04:09:38;101086.75;;;19.28;100.00
3434;BME280;1730;41.932;25.548;2022-09-03T04:12:04;101275.09;;;20.49;100.00
3434;BME280;1730;41.932;25.548;2022-09-03T04:14:33;101384.84;;;21.22;100.00
3434;BME280;1730;41.932;25.548;2022-09-03T04:16:59;101211.88;;;20.51;100.00
3434;BME280;1730;41.932;25.548;2022-09-03T04:19:25;101235.84;;;20.81;100.00
3434;BME280;1730;41.932;25.548;2022-09-03T04:21:52;101297.78;;;21.55;100.00
3434;BME280;1730;41.932;25.548;2022-09-03T04:24:18;100999.53;;;20.31;100.00
3434;BME280;1730;41.932;25.548;2022-09-03T04:26:44;100838.16;;;19.97;100.00
3434;BME280;1730;41.932;25.548;2022-09-03T04:29:09;101034.00;;;21.79;100.00
3434;BME280;1730;41.932;25.548;2022-09-03T04:31:36;100877.19;;;21.89;100.00
3434;BME280;1730;41.932;25.548;2022-09-03T04:34:02;100826.41;;;22.86;100.00
3434;BME280;1730;41.932;25.548;2022-09-03T04:36:30;100659.47;;;22.93;100.00
3434;BME280;1730;41.932;25.548;2022-09-03T04:38:58;100472.28;;;22.73;100.00
3434;BME280;1730;41.932;25.548;2022-09-03T04:41:27;100420.41;;;23.44;100.00
3434;BME280;1730;41.932;25.548;2022-09-03T04:43:54;100242.09;;;23.20;100.00
3434;BME280;1730;41.932;25.548;2022-09-03T04:46:21;100224.47;;;23.54;100.00
3434;BME280;1730;41.932;25.548;2022-09-03T04:48:49;100178.97;;;23.31;100.00
3434;BME280;1730;41.932;25.548;2022-09-03T04:51:18;100159.00;;;23.62;100.00
3434;BME280;1730;41.932;25.548;2022-09-03T04:53:45;100113.06;;;23.94;100.00
3434;BME280;1730;41.932;25.548;2022-09-03T04:56:13;99877.19;;;22.68;100.00
3434;BME280;1730;41.932;25.548;2022-09-03T04:58:40;99983.09;;;23.97;100.00
3434;BME280;1730;41.932;25.548;2022-09-03T05:01:10;99711.56;;;22.97;100.00
3434;BME280;1730;41.932;25.548;2022-09-03T05:03:36;99890.88;;;24.43;100.00
3434;BME280;1730;41.932;25.548;2022-09-03T05:06:02;99505.16;;;22.42;100.00
3434;BME280;1730;41.932;25.548;2022-09-03T05:08:27;99723.88;;;23.62;100.00
3434;BME280;1730;41.932;25.548;2022-09-03T05:11:19;99770.91;;;24.52;100.00
3434;BME280;1730;41.932;25.548;2022-09-03T05:13:50;99418.94;;;23.40;100.00
3434;BME280;1730;41.932;25.548;2022-09-03T05:16:17;99612.13;;;25.61;100.00
3434;BME280;1730;41.932;25.548;2022-09-03T05:18:43;99450.84;;;24.58;100.00
3434;BME280;1730;41.932;25.548;2022-09-03T05:21:13;99492.91;;;25.97;100.00
3434;BME280;1730;41.932;25.548;2022-09-03T05:23:41;99420.88;;;26.37;100.00
3434;BME280;1730;41.932;25.548;2022-09-03T05:26:11;99229.56;;;25.63;100.00
3434;BME280;1730;41.932;25.548;2022-09-03T05:28:39;99331.25;;;26.38;100.00
3434;BME280;1730;41.932;25.548;2022-09-03T05:31:17;99302.72;;;26.16;100.00
3434;BME280;1730;41.932;25.548;2022-09-03T05:33:46;99095.63;;;24.89;100.00
3434;BME280;1730;41.932;25.548;2022-09-03T05:36:14;99266.19;;;25.92;100.00
3434;BME280;1730;41.932;25.548;2022-09-03T05:38:41;99035.63;;;24.29;100.00
3434;BME280;1730;41.932;25.548;2022-09-03T05:41:09;99207.94;;;24.60;100.00
3434;BME280;1730;41.932;25.548;2022-09-03T05:43:35;99303.38;;;25.34;100.00
3434;BME280;1730;41.932;25.548;2022-09-03T05:46:02;99157.53;;;24.48;100.00
3434;BME280;1730;41.932;25.548;2022-09-03T05:48:29;99293.03;;;25.75;100.00
3434;BME280;1730;41.932;25.548;2022-09-03T05:50:59;99271.72;;;25.53;100.00
3434;BME280;1730;41.932;25.548;2022-09-03T05:53:29;99251.66;;;25.63;100.00
3434;BME280;1730;41.932;25.548;2022-09-03T05:56:00;99232.25;;;25.96;100.00
3434;BME280;1730;41.932;25.548;2022-09-03T05:58:37;99238.53;;;25.37;100.00
3434;BME280;1730;41.932;25.548;2022-09-03T06:01:10;99226.41;;;25.38;100.00
3434;BME280;1730;41.932;25.548;2022-09-03T06:03:35;99228.91;;;24.89;100.00
3434;BME280;1730;41.932;25.548;2022-09-03T06:06:01;99220.56;;;25.01;100.00
3434;BME280;1730;41.932;25.548;2022-09-03T06:08:27;98782.00;;;22.90;100.00
3434;BME280;1730;41.932;25.548;2022-09-03T06:10:57;99035.81;;;25.33;100.00
3434;BME280;1730;41.932;25.548;2022-09-03T06:13:23;99159.25;;;25.71;100.00
3434;BME280;1730;41.932;25.548;2022-09-03T06:15:49;99001.44;;;24.63;100.00
3434;BME280;1730;41.932;25.548;2022-09-03T06:18:14;99023.19;;;24.98;100.00
3434;BME280;1730;41.932;25.548;2022-09-03T06:20:40;99019.31;;;24.61;100.00
3434;BME280;1730;41.932;25.548;2022-09-03T06:23:05;98888.22;;;23.36;100.00
3434;BME280;1730;41.932;25.548;2022-09-03T06:25:31;99077.28;;;24.16;100.00
3434;BME280;1730;41.932;25.548;2022-09-03T06:27:57;98964.72;;;23.79;100.00
3434;BME280;1730;41.932;25.548;2022-09-03T06:30:23;99070.94;;;24.49;100.00
3434;BME280;1730;41.932;25.548;2022-09-03T06:32:50;99158.19;;;26.20;100.00
3434;BME280;1730;41.932;25.548;2022-09-03T06:35:17;99124.97;;;26.42;100.00
3434;BME280;1730;41.932;25.548;2022-09-03T06:37:42;98829.75;;;24.73;100.00
3434;BME280;1730;41.932;25.548;2022-09-03T06:40:09;99118.84;;;26.67;100.00
3434;BME280;1730;41.932;25.548;2022-09-03T06:42:38;98922.69;;;24.73;100.00
3434;BME280;1730;41.932;25.548;2022-09-03T06:45:06;98841.59;;;24.13;100.00
3434;BME280;1730;41.932;25.548;2022-09-03T06:47:32;99139.47;;;25.40;100.00
3434;BME280;1730;41.932;25.548;2022-09-03T06:49:58;99155.44;;;25.38;100.00
3434;BME280;1730;41.932;25.548;2022-09-03T06:52:25;99146.69;;;25.63;100.00
3434;BME280;1730;41.932;25.548;2022-09-03T06:54:51;99046.69;;;24.84;100.00
3434;BME280;1730;41.932;25.548;2022-09-03T06:57:16;99033.09;;;24.78;100.00
3434;BME280;1730;41.932;25.548;2022-09-03T06:59:42;99141.63;;;25.55;100.00
3434;BME280;1730;41.932;25.548;2022-09-03T07:02:09;98899.69;;;24.45;100.00
3434;BME280;1730;41.932;25.548;2022-09-03T07:04:34;99128.19;;;25.64;100.00
3434;BME280;1730;41.932;25.548;2022-09-03T07:07:00;99145.88;;;25.84;100.00
3434;BME280;1730;41.932;25.548;2022-09-03T07:09:26;98850.41;;;23.77;100.00
3434;BME280;1730;41.932;25.548;2022-09-03T07:11:52;99159.81;;;25.34;100.00
3434;BME280;1730;41.932;25.548;2022-09-03T07:14:19;99024.09;;;24.65;100.00
3434;BME280;1730;41.932;25.548;2022-09-03T07:16:46;99179.09;;;25.51;100.00
3434;BME280;1730;41.932;25.548;2022-09-03T07:19:12;99195.38;;;25.31;100.00
3434;BME280;1730;41.932;25.548;2022-09-03T07:21:38;99200.53;;;25.44;100.00
3434;BME280;1730;41.932;25.548;2022-09-03T07:24:08;99192.06;;;25.67;100.00
3434;BME280;1730;41.932;25.548;2022-09-03T07:26:39;98881.78;;;23.76;100.00
3434;BME280;1730;41.932;25.548;2022-09-03T07:29:06;99186.91;;;25.76;100.00
3434;BME280;1730;41.932;25.548;2022-09-03T07:31:34;99176.22;;;25.79;100.00
3434;BME280;1730;41.932;25.548;2022-09-03T07:34:03;99148.88;;;25.23;100.00
3434;BME280;1730;41.932;25.548;2022-09-03T07:36:37;99182.03;;;25.61;100.00
3434;BME280;1730;41.932;25.548;2022-09-03T07:39:04;99082.91;;;24.71;100.00
3434;BME280;1730;41.932;25.548;2022-09-03T07:41:30;98751.16;;;22.60;100.00
3434;BME280;1730;41.932;25.548;2022-09-03T07:43:57;99183.13;;;25.43;100.00
3434;BME280;1730;41.932;25.548;2022-09-03T07:46:25;99176.53;;;25.44;100.00
3434;BME280;1730;41.932;25.548;2022-09-03T07:48:56;99176.69;;;25.76;100.00
3434;BME280;1730;41.932;25.548;2022-09-03T07:51:27;99015.81;;;24.49;100.00
3434;BME280;1730;41.932;25.548;2022-09-03T07:53:56;99188.66;;;25.82;100.00
3434;BME280;1730;41.932;25.548;2022-09-03T07:56:26;99060.47;;;25.18;100.00
3434;BME280;1730;41.932;25.548;2022-09-03T07:58:52;99166.41;;;25.93;100.00
3434;BME280;1730;41.932;25.548;2022-09-03T08:01:20;99153.56;;;26.26;100.00
3434;BME280;1730;41.932;25.548;2022-09-03T08:03:48;98608.06;;;23.00;100.00
3434;BME280;1730;41.932;25.548;2022-09-03T08:06:15;99132.72;;;26.40;100.00
3434;BME280;1730;41.932;25.548;2022-09-03T08:08:41;99120.34;;;26.79;100.00
3434;BME280;1730;41.932;25.548;2022-09-03T08:11:11;98934.72;;;25.05;100.00
3434;BME280;1730;41.932;25.548;2022-09-03T08:13:44;99116.66;;;26.37;100.00
3434;BME280;1730;41.932;25.548;2022-09-03T08:16:11;99109.97;;;26.65;100.00
3434;BME280;1730;41.932;25.548;2022-09-03T08:18:37;99101.47;;;26.71;100.00
3434;BME280;1730;41.932;25.548;2022-09-03T08:21:14;99105.72;;;26.52;100.00
3434;BME280;1730;41.932;25.548;2022-09-03T08:23:43;99106.94;;;26.66;100.00
3434;BME280;1730;41.932;25.548;2022-09-03T08:26:09;98908.41;;;25.73;100.00
3434;BME280;1730;41.932;25.548;2022-09-03T08:28:36;99092.13;;;26.51;100.00
3434;BME280;1730;41.932;25.548;2022-09-03T08:31:09;99076.59;;;26.76;100.00
3434;BME280;1730;41.932;25.548;2022-09-03T08:33:38;99103.34;;;26.98;100.00
3434;BME280;1730;41.932;25.548;2022-09-03T08:36:08;98987.47;;;26.37;100.00
3434;BME280;1730;41.932;25.548;2022-09-03T08:38:35;99112.53;;;26.71;100.00
3434;BME280;1730;41.932;25.548;2022-09-03T08:41:16;99076.50;;;26.98;100.00
3434;BME280;1730;41.932;25.548;2022-09-03T08:46:49;99077.44;;;26.82;100.00
3434;BME280;1730;41.932;25.548;2022-09-03T08:49:21;98995.66;;;26.22;100.00
3434;BME280;1730;41.932;25.548;2022-09-03T08:51:49;99053.19;;;26.89;100.00
3434;BME280;1730;41.932;25.548;2022-09-03T08:54:17;98805.13;;;25.47;100.00
3434;BME280;1730;41.932;25.548;2022-09-03T08:56:46;99048.28;;;27.01;100.00
3434;BME280;1730;41.932;25.548;2022-09-03T08:59:12;99076.44;;;27.35;100.00
3434;BME280;1730;41.932;25.548;2022-09-03T09:01:58;99044.03;;;27.35;100.00
3434;BME280;1730;41.932;25.548;2022-09-03T09:07:20;99056.00;;;28.23;100.00
3434;BME280;1730;41.932;25.548;2022-09-03T09:09:59;99035.47;;;28.50;100.00
3434;BME280;1730;41.932;25.548;2022-09-03T09:17:44;99037.41;;;28.59;100.00
3434;BME280;1730;41.932;25.548;2022-09-03T09:23:03;99034.34;;;28.31;100.00
3434;BME280;1730;41.932;25.548;2022-09-03T09:25:31;99019.63;;;28.65;100.00
3434;BME280;1730;41.932;25.548;2022-09-03T09:28:15;99017.44;;;28.22;100.00
3434;BME280;1730;41.932;25.548;2022-09-03T09:30:42;99021.31;;;28.26;100.00
3434;BME280;1730;41.932;25.548;2022-09-03T09:33:08;99021.31;;;28.31;100.00
3434;BME280;1730;41.932;25.548;2022-09-03T09:35:33;99018.00;;;28.64;100.00
3434;BME280;1730;41.932;25.548;2022-09-03T09:37:59;98904.81;;;28.01;100.00
3434;BME280;1730;41.932;25.548;2022-09-03T09:43:13;99006.88;;;28.64;100.00
3434;BME280;1730;41.932;25.548;2022-09-03T09:45:47;99003.81;;;28.66;100.00
3434;BME280;1730;41.932;25.548;2022-09-03T09:48:31;98785.09;;;27.68;100.00
3434;BME280;1730;41.932;25.548;2022-09-03T09:51:08;98874.56;;;28.35;100.00
3434;BME280;1730;41.932;25.548;2022-09-03T09:53:34;98996.56;;;29.75;100.00
3434;BME280;1730;41.932;25.548;2022-09-03T09:56:00;98994.44;;;29.57;100.00
3434;BME280;1730;41.932;25.548;2022-09-03T09:58:31;99010.03;;;29.52;100.00
3434;BME280;1730;41.932;25.548;2022-09-03T10:01:00;98998.53;;;29.00;100.00
3434;BME280;1730;41.932;25.548;2022-09-03T10:03:31;99004.09;;;28.90;100.00
3434;BME280;1730;41.932;25.548;2022-09-03T10:06:13;98969.00;;;29.19;100.00
3434;BME280;1730;41.932;25.548;2022-09-03T10:09:08;98818.84;;;28.06;100.00
3434;BME280;1730;41.932;25.548;2022-09-03T10:11:36;99027.75;;;29.62;100.00
3434;BME280;1730;41.932;25.548;2022-09-03T10:14:28;99001.69;;;29.52;100.00
3434;BME280;1730;41.932;25.548;2022-09-03T10:17:23;98983.69;;;29.25;100.00
3434;BME280;1730;41.932;25.548;2022-09-03T10:25:44;98928.19;;;29.69;100.00
3434;BME280;1730;41.932;25.548;2022-09-03T10:28:15;99017.87;;;29.89;100.00
3434;BME280;1730;41.932;25.548;2022-09-03T10:33:26;98950.63;;;29.82;100.00
3434;BME280;1730;41.932;25.548;2022-09-03T10:36:24;98990.81;;;29.56;100.00
3434;BME280;1730;41.932;25.548;2022-09-03T10:38:53;98726.94;;;28.48;100.00
3434;BME280;1730;41.932;25.548;2022-09-03T10:42:04;98991.22;;;30.27;100.00
3434;BME280;1730;41.932;25.548;2022-09-03T10:47:20;98996.66;;;30.37;100.00
3434;BME280;1730;41.932;25.548;2022-09-03T10:49:54;98980.44;;;29.72;100.00
3434;BME280;1730;41.932;25.548;2022-09-03T10:52:38;98966.06;;;30.04;100.00
3434;BME280;1730;41.932;25.548;2022-09-03T11:01:07;98977.81;;;30.63;100.00
3434;BME280;1730;41.932;25.548;2022-09-03T11:03:44;98826.66;;;29.76;100.00
3434;BME280;1730;41.932;25.548;2022-09-03T11:06:25;98965.09;;;31.10;100.00
3434;BME280;1730;41.932;25.548;2022-09-03T11:08:59;98997.41;;;31.11;100.00
3434;BME280;1730;41.932;25.548;2022-09-03T11:11:32;98801.12;;;30.03;100.00
3434;BME280;1730;41.932;25.548;2022-09-03T11:14:09;98979.16;;;30.95;100.00
3434;BME280;1730;41.932;25.548;2022-09-03T11:16:42;98844.31;;;30.53;100.00
3434;BME280;1730;41.932;25.548;2022-09-03T11:19:12;98887.38;;;30.84;100.00
3434;BME280;1730;41.932;25.548;2022-09-03T11:21:41;98964.19;;;31.14;100.00
3434;BME280;1730;41.932;25.548;2022-09-03T11:24:21;98872.47;;;30.47;100.00
3434;BME280;1730;41.932;25.548;2022-09-03T11:27:15;98969.66;;;31.43;100.00
3434;BME280;1730;41.932;25.548;2022-09-03T11:29:54;98984.22;;;31.16;100.00
3434;BME280;1730;41.932;25.548;2022-09-03T11:32:24;98981.44;;;31.16;100.00
3434;BME280;1730;41.932;25.548;2022-09-03T11:34:54;98980.72;;;30.53;100.00
3434;BME280;1730;41.932;25.548;2022-09-03T11:37:22;98978.00;;;30.72;100.00
3434;BME280;1730;41.932;25.548;2022-09-03T11:42:34;98957.75;;;30.90;100.00
3434;BME280;1730;41.932;25.548;2022-09-03T11:47:44;98965.75;;;30.73;100.00
3434;BME280;1730;41.932;25.548;2022-09-03T11:50:22;98836.31;;;30.41;100.00
3434;BME280;1730;41.932;25.548;2022-09-03T11:52:49;98975.84;;;31.16;100.00
3434;BME280;1730;41.932;25.548;2022-09-03T11:55:30;98954.91;;;30.95;100.00
3434;BME280;1730;41.932;25.548;2022-09-03T11:58:09;98961.47;;;30.23;100.00
3434;BME280;1730;41.932;25.548;2022-09-03T12:00:35;98965.09;;;30.81;100.00
3434;BME280;1730;41.932;25.548;2022-09-03T12:03:03;98965.88;;;31.15;100.00
3434;BME280;1730;41.932;25.548;2022-09-03T12:19:30;98962.44;;;31.42;100.00
3434;BME280;1730;41.932;25.548;2022-09-03T12:21:58;98953.84;;;31.39;100.00
3434;BME280;1730;41.932;25.548;2022-09-03T12:24:28;98692.59;;;30.51;97.97
3434;BME280;1730;41.932;25.548;2022-09-03T12:27:00;98799.31;;;31.45;94.25
3434;BME280;1730;41.932;25.548;2022-09-03T12:29:28;98756.13;;;30.67;95.54
3434;BME280;1730;41.932;25.548;2022-09-03T12:32:04;98939.31;;;30.94;100.00
3434;BME280;1730;41.932;25.548;2022-09-03T12:34:31;98406.81;;;27.71;100.00
3434;BME280;1730;41.932;25.548;2022-09-03T12:36:57;98754.41;;;30.24;99.15
3434;BME280;1730;41.932;25.548;2022-09-03T12:39:24;98927.72;;;31.53;93.40
3434;BME280;1730;41.932;25.548;2022-09-03T12:42:06;98925.06;;;31.99;86.60
3434;BME280;1730;41.932;25.548;2022-09-03T12:47:20;98924.06;;;31.77;94.92
3434;BME280;1730;41.932;25.548;2022-09-03T12:49:48;98937.28;;;31.05;99.91
3434;BME280;1730;41.932;25.548;2022-09-03T12:53:05;98920.22;;;31.30;100.00
3434;BME280;1730;41.932;25.548;2022-09-03T12:58:07;98950.84;;;31.11;94.51
3434;BME280;1730;41.932;25.548;2022-09-03T13:00:40;98851.38;;;30.88;91.44
3434;BME280;1730;41.932;25.548;2022-09-03T13:03:12;98925.19;;;32.08;83.24
3434;BME280;1730;41.932;25.548;2022-09-03T13:05:42;98935.03;;;31.87;82.09
3434;BME280;1730;41.932;25.548;2022-09-03T13:08:14;98953.16;;;31.47;87.75
3434;BME280;1730;41.932;25.548;2022-09-03T13:10:43;98954.19;;;31.56;90.59
3434;BME280;1730;41.932;25.548;2022-09-03T13:16:03;98927.13;;;31.14;92.50
3434;BME280;1730;41.932;25.548;2022-09-03T13:18:50;98831.81;;;30.22;98.77
3434;BME280;1730;41.932;25.548;2022-09-03T13:21:34;98932.47;;;31.53;94.24
3434;BME280;1730;41.932;25.548;2022-09-03T13:32:44;98922.19;;;31.72;81.88
3434;BME280;1730;41.932;25.548;2022-09-03T13:38:42;98880.06;;;31.12;100.00
3434;BME280;1730;41.932;25.548;2022-09-03T13:41:37;98595.59;;;29.25;100.00
3434;BME280;1730;41.932;25.548;2022-09-03T13:46:45;98931.28;;;31.16;100.00
3434;BME280;1730;41.932;25.548;2022-09-03T13:52:10;98879.38;;;29.52;100.00
3434;BME280;1730;41.932;25.548;2022-09-03T13:54:45;98951.59;;;29.58;100.00
3434;BME280;1730;41.932;25.548;2022-09-03T13:57:28;98973.34;;;29.45;100.00
3434;BME280;1730;41.932;25.548;2022-09-03T14:00:10;98966.84;;;29.01;100.00
3434;BME280;1730;41.932;25.548;2022-09-03T14:02:50;98864.75;;;28.67;100.00
3434;BME280;1730;41.932;25.548;2022-09-03T14:05:33;98826.34;;;28.10;100.00
3434;BME280;1730;41.932;25.548;2022-09-03T14:08:22;98716.38;;;27.10;100.00
3434;BME280;1730;41.932;25.548;2022-09-03T14:11:12;98976.09;;;28.51;100.00
3434;BME280;1730;41.932;25.548;2022-09-03T14:16:53;98965.00;;;28.36;100.00
3434;BME280;1730;41.932;25.548;2022-09-03T14:19:47;98972.72;;;28.08;100.00
3434;BME280;1730;41.932;25.548;2022-09-03T14:22:23;98978.00;;;28.00;100.00
3434;BME280;1730;41.932;25.548;2022-09-03T14:25:02;98877.53;;;27.22;100.00
3434;BME280;1730;41.932;25.548;2022-09-03T14:27:31;98999.31;;;27.79;100.00
3434;BME280;1730;41.932;25.548;2022-09-03T14:30:03;98983.00;;;28.03;100.00
3434;BME280;1730;41.932;25.548;2022-09-03T14:37:54;98981.06;;;28.03;100.00
3434;BME280;1730;41.932;25.548;2022-09-03T14:40:29;98994.06;;;27.93;100.00
3434;BME280;1730;41.932;25.548;2022-09-03T14:52:10;98991.84;;;27.79;100.00
3434;BME280;1730;41.932;25.548;2022-09-03T15:00:33;99007.44;;;28.36;100.00
3434;BME280;1730;41.932;25.548;2022-09-03T15:11:33;99057.81;;;27.88;100.00
3434;BME280;1730;41.932;25.548;2022-09-03T15:14:18;99029.00;;;27.89;100.00
3434;BME280;1730;41.932;25.548;2022-09-03T15:19:50;99029.44;;;27.50;100.00
3434;BME280;1730;41.932;25.548;2022-09-03T15:30:35;99135.62;;;27.19;100.00
3434;BME280;1730;41.932;25.548;2022-09-03T15:33:12;99227.91;;;26.71;100.00
3434;BME280;1730;41.932;25.548;2022-09-03T15:36:10;99308.88;;;26.39;100.00
3434;BME280;1730;41.932;25.548;2022-09-03T15:39:01;99405.38;;;26.19;100.00
3434;BME280;1730;41.932;25.548;2022-09-03T15:44:09;99342.56;;;25.03;100.00
3434;BME280;1730;41.932;25.548;2022-09-03T15:46:37;99333.94;;;24.59;100.00
3434;BME280;1730;41.932;25.548;2022-09-03T15:54:45;99419.78;;;26.05;100.00
3434;BME280;1730;41.932;25.548;2022-09-03T15:57:28;99457.97;;;26.08;100.00
3434;BME280;1730;41.932;25.548;2022-09-03T16:00:22;99379.19;;;25.27;100.00
3434;BME280;1730;41.932;25.548;2022-09-03T16:03:07;99452.19;;;25.92;100.00
3434;BME280;1730;41.932;25.548;2022-09-03T16:22:05;99274.12;;;25.67;100.00
3434;BME280;1730;41.932;25.548;2022-09-03T16:24:52;99018.66;;;24.20;100.00
3434;BME280;1730;41.932;25.548;2022-09-03T16:27:27;99261.69;;;25.19;100.00
3434;BME280;1730;41.932;25.548;2022-09-03T16:29:58;99271.25;;;25.45;100.00
3434;BME280;1730;41.932;25.548;2022-09-03T16:43:33;99033.75;;;23.73;100.00
3434;BME280;1730;41.932;25.548;2022-09-03T16:46:21;99285.22;;;25.22;100.00
3434;BME280;1730;41.932;25.548;2022-09-03T16:49:04;99320.78;;;24.90;100.00
3434;BME280;1730;41.932;25.548;2022-09-03T16:51:42;99206.41;;;24.24;100.00
3434;BME280;1730;41.932;25.548;2022-09-03T16:54:46;99274.75;;;25.07;100.00
3434;BME280;1730;41.932;25.548;2022-09-03T17:00:20;99160.81;;;23.53;100.00